createdAt,value
2023-04-24T00:02:39.828Z,8.40
2023-04-24T00:05:27.294Z,8.20
2023-04-24T00:08:07.291Z,8.09
2023-04-24T00:10:54.283Z,8.09
2023-04-24T00:13:34.414Z,8.11
2023-04-24T00:16:21.318Z,8.14
2023-04-24T00:19:01.912Z,8.16
2023-04-24T00:21:49.225Z,8.29
2023-04-24T00:24:29.499Z,8.30
2023-04-24T00:27:16.425Z,8.41
2023-04-24T00:29:56.586Z,8.61
2023-04-24T00:32:43.245Z,8.24
2023-04-24T00:35:24.488Z,8.64
2023-04-24T00:38:11.215Z,8.66
2023-04-24T00:41:05.242Z,8.70
2023-04-24T00:43:52.206Z,8.65
2023-04-24T00:46:32.367Z,8.87
2023-04-24T00:49:20.169Z,8.76
2023-04-24T00:52:00.594Z,8.56
2023-04-24T00:54:47.195Z,8.67
2023-04-24T00:57:27.306Z,8.65
2023-04-24T01:00:19.195Z,8.58
2023-04-24T01:03:00.441Z,8.73
2023-04-24T01:05:47.198Z,8.89
2023-04-24T01:08:35.150Z,8.80
2023-04-24T01:11:22.240Z,8.69
2023-04-24T01:14:09.211Z,8.76
2023-04-24T01:16:56.193Z,8.61
2023-04-24T01:19:36.607Z,8.38
2023-04-24T01:22:24.129Z,8.29
2023-04-24T01:25:13.148Z,8.26
2023-04-24T01:27:53.791Z,8.02
2023-04-24T01:30:41.116Z,7.96
2023-04-24T01:33:23.038Z,8.03
2023-04-24T01:36:10.132Z,8.11
2023-04-24T01:38:57.328Z,8.20
2023-04-24T01:41:44.154Z,8.42
2023-04-24T01:44:27.279Z,8.52
2023-04-24T01:47:14.148Z,8.49
2023-04-24T01:49:56.310Z,8.42
2023-04-24T01:52:44.073Z,8.36
2023-04-24T01:55:31.145Z,8.13
2023-04-24T01:58:19.135Z,7.99
2023-04-24T02:01:06.168Z,7.91
2023-04-24T02:03:47.776Z,7.78
2023-04-24T02:06:35.128Z,7.59
2023-04-24T02:09:22.097Z,7.74
2023-04-24T02:12:02.298Z,7.75
2023-04-24T02:14:50.082Z,7.84
2023-04-24T02:17:37.100Z,7.76
2023-04-24T02:20:25.053Z,7.97
2023-04-24T02:23:13.026Z,8.25
2023-04-24T02:26:01.044Z,8.19
2023-04-24T02:28:41.220Z,8.24
2023-04-24T02:31:28.103Z,8.25
2023-04-24T02:34:15.116Z,7.93
2023-04-24T02:37:02.086Z,8.05
2023-04-24T02:39:50.061Z,8.17
2023-04-24T02:42:37.032Z,8.08
2023-04-24T02:45:17.123Z,8.12
2023-04-24T02:48:04.112Z,8.18
2023-04-24T02:50:45.274Z,8.30
2023-04-24T02:53:32.091Z,8.17
2023-04-24T02:56:15.248Z,8.21
2023-04-24T02:59:02.148Z,8.06
2023-04-24T03:01:42.143Z,7.98
2023-04-24T03:04:30.112Z,7.99
2023-04-24T03:07:16.958Z,8.04
2023-04-24T03:10:05.993Z,7.85
2023-04-24T03:12:46.214Z,8.07
2023-04-24T03:15:32.963Z,8.30
2023-04-24T03:18:20.008Z,8.14
2023-04-24T03:21:00.526Z,8.11
2023-04-24T03:23:47.972Z,8.17
2023-04-24T03:26:28.476Z,8.27
2023-04-24T03:29:30.395Z,8.22
2023-04-24T03:32:17.097Z,8.44
2023-04-24T03:34:57.985Z,8.55
2023-04-24T03:37:38.347Z,8.41
2023-04-24T03:40:43.952Z,8.56
2023-04-24T03:43:50.966Z,8.75
2023-04-24T03:46:32.064Z,8.39
2023-04-24T03:49:18.966Z,8.62
2023-04-24T03:51:59.061Z,8.82
2023-04-24T03:54:45.960Z,8.83
2023-04-24T03:57:26.105Z,9.06
2023-04-24T04:00:23.953Z,9.40
2023-04-24T04:03:24.388Z,9.95
2023-04-24T04:06:11.909Z,10.47
2023-04-24T04:08:58.871Z,11.06
2023-04-24T04:11:39.419Z,11.57
2023-04-24T04:14:25.958Z,12.16
2023-04-24T04:17:06.243Z,12.54
2023-04-24T04:19:52.941Z,12.64
2023-04-24T04:22:33.317Z,13.42
2023-04-24T04:25:22.894Z,13.75
2023-04-24T04:28:03.329Z,14.52
2023-04-24T04:30:51.977Z,14.95
2023-04-24T04:33:32.690Z,14.97
2023-04-24T04:36:20.847Z,14.94
2023-04-24T04:39:08.883Z,15.16
2023-04-24T04:42:10.880Z,14.95
2023-04-24T04:44:57.865Z,15.37
2023-04-24T04:47:55.856Z,15.52
2023-04-24T04:50:38.253Z,15.15
2023-04-24T04:53:24.899Z,15.09
2023-04-24T04:56:05.539Z,14.64
2023-04-24T04:58:56.854Z,15.21
2023-04-24T05:01:37.805Z,15.66
2023-04-24T05:04:26.961Z,15.72
2023-04-24T05:07:07.426Z,15.76
2023-04-24T05:09:59.836Z,15.60
2023-04-24T05:12:53.842Z,16.29
2023-04-24T05:15:40.850Z,16.20
2023-04-24T05:18:21.981Z,16.54
2023-04-24T05:21:08.844Z,16.37
2023-04-24T05:23:51.983Z,16.30
2023-04-24T05:26:56.809Z,15.90
2023-04-24T05:29:48.816Z,16.13
2023-04-24T05:32:35.807Z,16.15
2023-04-24T05:35:22.860Z,16.85
2023-04-24T05:38:10.819Z,17.53
2023-04-24T05:41:04.843Z,17.04
2023-04-24T05:43:45.190Z,16.21
2023-04-24T05:46:31.948Z,16.86
2023-04-24T05:49:12.558Z,17.11
2023-04-24T05:52:00.799Z,17.39
2023-04-24T05:54:41.255Z,17.29
2023-04-24T05:57:32.855Z,16.82
2023-04-24T06:00:14.554Z,17.12
2023-04-24T06:03:12.996Z,16.90
2023-04-24T06:05:55.126Z,17.72
2023-04-24T06:08:42.763Z,18.03
2023-04-24T06:11:23.681Z,18.16
2023-04-24T06:14:11.765Z,17.28
2023-04-24T06:17:10.341Z,17.65
2023-04-24T06:19:58.875Z,17.89
2023-04-24T06:22:41.095Z,17.77
2023-04-24T06:25:27.880Z,18.95
2023-04-24T06:28:08.315Z,18.84
2023-04-24T06:30:54.715Z,18.63
2023-04-24T06:33:35.122Z,18.73
2023-04-24T06:36:23.810Z,18.63
2023-04-24T06:39:13.114Z,18.91
2023-04-24T06:42:06.862Z,19.44
2023-04-24T06:44:56.754Z,19.36
2023-04-24T06:47:39.020Z,17.84
2023-04-24T06:50:25.718Z,19.27
2023-04-24T06:53:12.710Z,20.35
2023-04-24T06:55:53.576Z,21.46
2023-04-24T06:58:40.785Z,21.28
2023-04-24T07:01:27.812Z,21.08
2023-04-24T07:04:15.012Z,22.29
2023-04-24T07:07:05.944Z,22.03
2023-04-24T07:09:48.684Z,20.61
2023-04-24T07:12:35.696Z,20.65
2023-04-24T07:15:22.702Z,19.85
2023-04-24T07:18:09.766Z,20.36
2023-04-24T07:20:53.247Z,21.07
2023-04-24T07:23:39.733Z,22.02
2023-04-24T07:39:42.724Z,20.60
2023-04-24T07:42:23.083Z,21.61
2023-04-24T07:45:10.313Z,21.90
2023-04-24T07:47:51.990Z,21.91
2023-04-24T07:50:38.393Z,21.82
2023-04-24T07:53:18.911Z,20.97
2023-04-24T07:56:05.305Z,20.37
2023-04-24T07:58:52.434Z,19.88
2023-04-24T08:01:32.668Z,21.32
2023-04-24T08:04:19.581Z,22.23
2023-04-24T08:06:59.437Z,23.05
2023-04-24T08:09:46.287Z,21.08
2023-04-24T08:12:26.433Z,20.49
2023-04-24T08:15:14.336Z,21.43
2023-04-24T08:17:54.413Z,22.46
2023-04-24T08:20:41.316Z,22.52
2023-04-24T08:23:21.506Z,22.15
2023-04-24T08:26:08.281Z,20.67
2023-04-24T08:28:48.436Z,22.11
2023-04-24T08:31:35.344Z,21.51
2023-04-24T08:34:22.389Z,20.54
2023-04-24T08:37:10.255Z,21.14
2023-04-24T08:39:58.472Z,22.77
2023-04-24T08:42:41.286Z,23.59
2023-04-24T08:45:22.093Z,23.11
2023-04-24T08:48:16.553Z,22.77
2023-04-24T08:51:05.802Z,24.26
2023-04-24T08:53:52.264Z,24.35
2023-04-24T08:56:36.078Z,24.80
2023-04-24T08:59:23.291Z,22.99
2023-04-24T09:02:11.584Z,22.78
2023-04-24T09:04:53.269Z,23.95
2023-04-24T09:07:37.198Z,23.16
2023-04-24T09:10:24.230Z,24.25
2023-04-24T09:13:11.347Z,24.92
2023-04-24T09:15:51.374Z,24.52
2023-04-24T09:18:38.233Z,24.22
2023-04-24T09:21:25.260Z,25.25
2023-04-24T09:24:15.372Z,25.02
2023-04-24T09:27:02.285Z,24.63
2023-04-24T09:29:58.101Z,23.06
2023-04-24T09:32:45.281Z,22.67
2023-04-24T09:35:25.917Z,22.35
2023-04-24T09:38:12.165Z,21.63
2023-04-24T09:40:59.222Z,21.97
2023-04-24T09:43:40.717Z,22.00
2023-04-24T09:46:29.318Z,21.82
2023-04-24T09:49:36.170Z,20.37
2023-04-24T09:52:23.204Z,21.37
2023-04-24T09:55:04.300Z,21.63
2023-04-24T09:57:59.182Z,22.14
2023-04-24T10:00:48.197Z,22.61
2023-04-24T10:03:38.236Z,21.85
2023-04-24T10:06:20.289Z,22.16
2023-04-24T10:09:07.241Z,20.87
2023-04-24T10:11:52.361Z,21.89
2023-04-24T10:14:39.173Z,20.97
2023-04-24T10:17:21.582Z,20.43
2023-04-24T10:20:09.205Z,20.60
2023-04-24T10:22:51.062Z,20.58
2023-04-24T10:25:41.171Z,22.28
2023-04-24T10:28:22.753Z,22.98
2023-04-24T10:31:09.175Z,23.31
2023-04-24T10:33:50.311Z,23.73
2023-04-24T10:36:40.192Z,23.90
2023-04-24T10:39:35.132Z,23.53
2023-04-24T10:42:19.130Z,23.69
2023-04-24T10:45:06.103Z,22.24
2023-04-24T10:48:08.226Z,22.11
2023-04-24T10:50:52.304Z,20.65
2023-04-24T10:53:42.177Z,19.82
2023-04-24T10:56:24.390Z,19.19
2023-04-24T10:59:17.101Z,18.90
2023-04-24T11:02:08.092Z,18.60
2023-04-24T11:04:52.571Z,18.85
2023-04-24T11:07:40.107Z,19.40
2023-04-24T11:10:34.112Z,19.99
2023-04-24T11:13:14.237Z,19.87
2023-04-24T11:16:21.149Z,20.85
2023-04-24T11:19:12.340Z,19.11
2023-04-24T11:22:08.118Z,18.50
2023-04-24T11:25:04.112Z,19.07
2023-04-24T11:27:46.613Z,18.25
2023-04-24T11:30:35.141Z,16.28
2023-04-24T11:33:21.772Z,15.64
2023-04-24T11:36:08.112Z,15.29
2023-04-24T11:38:55.381Z,14.86
2023-04-24T11:41:36.069Z,14.39
2023-04-24T11:44:28.095Z,13.58
2023-04-24T11:47:08.171Z,13.48
2023-04-24T11:49:58.238Z,13.73
2023-04-24T11:52:39.178Z,13.57
2023-04-24T11:55:26.047Z,13.41
2023-04-24T11:58:07.635Z,13.31
2023-04-24T12:01:04.070Z,13.25
2023-04-24T12:03:53.222Z,12.90
2023-04-24T12:06:33.495Z,12.88
2023-04-24T12:09:20.070Z,13.08
2023-04-24T12:12:07.146Z,13.09
2023-04-24T12:15:06.038Z,12.81
2023-04-24T12:17:46.958Z,12.70
2023-04-24T12:20:45.979Z,12.78
2023-04-24T12:23:46.064Z,12.93
2023-04-24T12:26:27.764Z,12.68
2023-04-24T12:29:15.999Z,12.53
2023-04-24T12:31:56.497Z,12.76
2023-04-24T12:34:43.014Z,12.67
2023-04-24T12:37:23.201Z,12.92
2023-04-24T12:40:16.023Z,12.85
2023-04-24T12:43:04.996Z,13.06
2023-04-24T12:45:54.972Z,13.22
2023-04-24T12:48:42.300Z,12.92
2023-04-24T12:51:22.445Z,12.59
2023-04-24T12:54:09.032Z,12.80
2023-04-24T12:56:56.013Z,12.77
2023-04-24T12:59:36.289Z,12.52
2023-04-24T13:02:26.091Z,12.53
2023-04-24T13:05:14.114Z,12.44
2023-04-24T13:07:54.385Z,12.44
2023-04-24T13:10:41.967Z,12.55
2023-04-24T13:13:28.929Z,12.62
2023-04-24T13:16:15.988Z,12.52
2023-04-24T13:18:56.484Z,12.78
2023-04-24T13:21:43.992Z,12.76
2023-04-24T13:24:27.440Z,12.47
2023-04-24T13:27:14.005Z,12.58
2023-04-24T13:29:54.321Z,12.68
2023-04-24T13:32:40.994Z,12.47
2023-04-24T13:35:21.426Z,12.66
2023-04-24T13:38:12.168Z,12.70
2023-04-24T13:40:58.959Z,12.87
2023-04-24T13:43:39.049Z,12.74
2023-04-24T13:46:26.010Z,12.62
2023-04-24T13:49:06.021Z,12.59
2023-04-24T13:51:53.990Z,12.67
2023-04-24T13:54:40.905Z,12.46
2023-04-24T13:57:21.599Z,12.40
2023-04-24T14:00:09.879Z,12.43
2023-04-24T14:02:57.005Z,12.24
2023-04-24T14:05:38.856Z,12.33
2023-04-24T14:08:25.851Z,12.45
2023-04-24T14:11:06.040Z,12.43
2023-04-24T14:13:53.913Z,12.45
2023-04-24T14:16:34.073Z,12.16
2023-04-24T14:19:20.916Z,12.20
2023-04-24T14:22:00.972Z,12.35
2023-04-24T14:24:47.848Z,12.04
2023-04-24T14:27:27.971Z,11.88
2023-04-24T14:30:15.836Z,11.82
2023-04-24T14:33:03.149Z,12.11
2023-04-24T14:35:50.328Z,12.11
2023-04-24T14:38:29.906Z,11.95
2023-04-24T14:41:17.833Z,11.88
2023-04-24T14:44:04.891Z,11.78
2023-04-24T14:46:51.905Z,11.69
2023-04-24T14:49:31.952Z,11.66
2023-04-24T14:52:18.838Z,11.87
2023-04-24T14:54:58.904Z,11.79
2023-04-24T14:57:45.850Z,11.84
2023-04-24T15:00:33.894Z,11.74
2023-04-24T15:03:14.482Z,11.82
2023-04-24T15:06:01.856Z,11.82
2023-04-24T15:08:50.535Z,11.94
2023-04-24T15:11:37.848Z,11.86
2023-04-24T15:14:25.814Z,11.86
2023-04-24T15:17:06.097Z,11.81
2023-04-24T15:19:52.856Z,11.90
2023-04-24T15:22:32.938Z,11.91
2023-04-24T15:25:19.765Z,11.62
2023-04-24T15:28:06.892Z,11.76
2023-04-24T15:30:47.212Z,11.77
2023-04-24T15:33:33.735Z,11.81
2023-04-24T15:36:14.197Z,11.74
2023-04-24T15:39:02.506Z,11.73
2023-04-24T15:41:45.311Z,11.75
2023-04-24T15:44:31.794Z,11.76
2023-04-24T15:47:14.488Z,11.89
2023-04-24T15:50:00.740Z,11.85
2023-04-24T15:52:41.188Z,11.79
2023-04-24T15:55:27.770Z,11.88
2023-04-24T15:58:08.509Z,11.92
2023-04-24T16:00:55.728Z,11.77
2023-04-24T16:03:42.900Z,11.82
2023-04-24T16:06:22.974Z,11.77
2023-04-24T16:09:09.694Z,11.81
2023-04-24T16:11:49.950Z,11.86
2023-04-24T16:14:36.760Z,11.83
2023-04-24T16:17:16.983Z,11.87
2023-04-24T16:20:03.882Z,11.96
2023-04-24T16:22:45.062Z,11.84
2023-04-24T16:25:34.227Z,11.81
2023-04-24T16:28:15.248Z,11.54
2023-04-24T16:31:01.769Z,11.65
2023-04-24T16:33:42.082Z,11.58
2023-04-24T16:36:28.857Z,11.65
2023-04-24T16:39:10.187Z,11.74
2023-04-24T16:41:59.069Z,11.75
2023-04-24T16:44:39.841Z,11.71
2023-04-24T16:47:26.687Z,11.57
2023-04-24T16:50:07.339Z,11.57
2023-04-24T16:52:53.909Z,11.37
2023-04-24T16:55:33.903Z,11.40
2023-04-24T16:58:20.664Z,11.28
2023-04-24T17:01:07.802Z,11.27
2023-04-24T17:03:48.370Z,11.23
2023-04-24T17:06:35.806Z,11.21
2023-04-24T17:09:17.652Z,11.23
2023-04-24T17:12:04.826Z,11.19
2023-04-24T17:14:52.044Z,11.26
2023-04-24T17:17:38.861Z,11.22
2023-04-24T17:20:27.026Z,11.17
2023-04-24T17:23:18.652Z,11.12
2023-04-24T17:25:59.245Z,11.31
2023-04-24T17:28:47.786Z,11.40
2023-04-24T17:31:28.418Z,11.16
2023-04-24T17:34:16.837Z,11.30
2023-04-24T17:36:57.529Z,11.33
2023-04-24T17:39:44.810Z,11.19
2023-04-24T17:42:25.169Z,11.01
2023-04-24T17:45:11.657Z,11.06
2023-04-24T17:47:52.086Z,10.95
2023-04-24T17:50:38.643Z,10.54
2023-04-24T17:53:19.490Z,10.72
2023-04-24T17:56:08.601Z,10.64
2023-04-24T17:58:49.272Z,10.67
2023-04-24T18:01:36.612Z,10.75
2023-04-24T18:04:17.241Z,10.77
2023-04-24T18:07:04.566Z,10.63
2023-04-24T18:09:52.570Z,10.71
2023-04-24T18:12:33.618Z,10.78
2023-04-24T18:15:20.743Z,10.59
2023-04-24T18:18:00.625Z,10.91
2023-04-24T18:20:41.127Z,10.90
2023-04-24T18:23:27.554Z,10.75
2023-04-24T18:26:08.503Z,10.85
2023-04-24T18:28:55.588Z,10.88
2023-04-24T18:31:35.997Z,10.74
2023-04-24T18:34:22.561Z,10.63
2023-04-24T18:37:09.537Z,10.75
2023-04-24T18:39:56.806Z,10.52
2023-04-24T18:42:36.524Z,10.61
2023-04-24T18:45:17.044Z,10.71
2023-04-24T18:48:03.577Z,10.80
2023-04-24T18:50:44.012Z,10.56
2023-04-24T18:53:30.582Z,10.77
2023-04-24T18:56:11.026Z,10.80
2023-04-24T18:58:58.557Z,10.60
2023-04-24T19:01:39.681Z,10.79
2023-04-24T19:04:28.621Z,10.82
2023-04-24T19:07:09.067Z,10.53
2023-04-24T19:09:55.549Z,10.83
2023-04-24T19:12:42.585Z,10.92
2023-04-24T19:15:22.670Z,10.91
2023-04-24T19:18:09.511Z,10.75
2023-04-24T19:20:49.641Z,10.88
2023-04-24T19:23:37.477Z,10.90
2023-04-24T19:26:17.682Z,10.61
2023-04-24T19:41:24.665Z,10.39
2023-04-24T19:44:11.707Z,10.19
2023-04-24T19:46:52.889Z,10.50
2023-04-24T19:49:39.627Z,10.67
2023-04-24T19:52:19.851Z,10.75
2023-04-24T19:55:06.648Z,10.40
2023-04-24T19:57:46.727Z,10.56
2023-04-24T20:00:47.636Z,10.68
2023-04-24T20:03:35.137Z,10.49
2023-04-24T20:06:15.078Z,10.57
2023-04-24T20:09:01.629Z,10.73
2023-04-24T20:11:48.652Z,10.72
2023-04-24T20:14:35.645Z,10.73
2023-04-24T20:17:19.090Z,10.79
2023-04-24T20:20:05.712Z,10.79
2023-04-24T20:22:46.014Z,10.79
2023-04-24T20:25:32.613Z,10.83
2023-04-24T20:28:14.869Z,10.82
2023-04-24T20:31:01.614Z,10.78
2023-04-24T20:33:42.132Z,10.89
2023-04-24T20:36:28.546Z,11.00
2023-04-24T20:39:22.530Z,10.88
2023-04-24T20:42:04.541Z,11.06
2023-04-24T20:44:52.537Z,11.02
2023-04-24T20:47:32.758Z,10.35
2023-04-24T20:50:19.628Z,10.65
2023-04-24T20:52:59.638Z,10.76
2023-04-24T20:55:46.551Z,10.76
2023-04-24T20:58:26.661Z,10.67
2023-04-24T21:01:13.576Z,10.68
2023-04-24T21:03:53.831Z,10.63
2023-04-24T21:06:40.665Z,10.66
2023-04-24T21:09:27.666Z,10.69
2023-04-24T21:12:08.071Z,10.64
2023-04-24T21:14:54.490Z,10.69
2023-04-24T21:17:41.576Z,10.79
2023-04-24T21:20:28.531Z,10.71
2023-04-24T21:23:15.742Z,10.70
2023-04-24T21:25:55.501Z,10.80
2023-04-24T21:28:36.671Z,10.91
2023-04-24T21:31:23.561Z,10.84
2023-04-24T21:34:04.142Z,10.81
2023-04-24T21:36:50.545Z,10.96
2023-04-24T21:39:44.461Z,10.99
2023-04-24T21:42:32.518Z,10.81
2023-04-24T21:45:12.597Z,10.82
2023-04-24T21:47:59.664Z,10.91
2023-04-24T21:50:41.756Z,10.98
2023-04-24T21:53:28.526Z,10.79
2023-04-24T21:56:09.234Z,11.10
2023-04-24T21:58:57.550Z,11.01
2023-04-24T22:01:37.629Z,11.04
2023-04-24T22:04:24.782Z,10.91
2023-04-24T22:07:04.737Z,10.98
2023-04-24T22:09:51.469Z,11.10
2023-04-24T22:12:31.604Z,11.02
2023-04-24T22:15:18.492Z,10.58
2023-04-24T22:18:05.588Z,10.92
2023-04-24T22:20:46.692Z,11.00
2023-04-24T22:23:33.452Z,11.00
2023-04-24T22:26:13.925Z,11.05
2023-04-24T22:29:00.489Z,11.06
2023-04-24T22:31:41.710Z,11.04
2023-04-24T22:34:28.463Z,11.07
2023-04-24T22:37:08.823Z,11.07
2023-04-24T22:39:55.414Z,11.07
2023-04-24T22:42:42.521Z,11.04
2023-04-24T22:45:24.389Z,11.10
2023-04-24T22:48:04.922Z,11.11
2023-04-24T22:50:51.401Z,11.10
2023-04-24T22:53:32.077Z,11.06
2023-04-24T22:56:18.490Z,11.05
2023-04-24T22:58:59.159Z,11.09
2023-04-24T23:01:46.543Z,10.98
2023-04-24T23:04:26.881Z,10.99
2023-04-24T23:07:13.450Z,10.86
2023-04-24T23:10:00.447Z,10.98
2023-04-24T23:12:47.360Z,10.95
2023-04-24T23:15:34.364Z,10.80
2023-04-24T23:18:14.539Z,11.18
2023-04-24T23:21:01.374Z,11.13
2023-04-24T23:23:48.776Z,11.01
2023-04-24T23:26:28.980Z,11.04
2023-04-24T23:29:15.420Z,10.96
2023-04-24T23:31:56.676Z,11.03
2023-04-24T23:34:46.375Z,10.99
2023-04-24T23:37:27.161Z,11.02
2023-04-24T23:40:14.386Z,11.10
2023-04-24T23:43:06.365Z,11.07
2023-04-24T23:45:54.404Z,10.54
2023-04-24T23:48:34.819Z,10.68
2023-04-24T23:51:21.431Z,10.68
2023-04-24T23:54:01.818Z,10.74
2023-04-24T23:56:48.411Z,10.51
2023-04-24T23:59:29.256Z,10.77
